Time;durP1;ratioP1;P1;durP2;ratioP2;P2;SDS_P1;SDS_P2;PMS_P1;PMS_P2;Temp;Humidity;BMP_temperature;BMP_pressure;BME280_temperature;BME280_humidity;BME280_pressure;Samples;Min_cycle;Max_cycle;Signal;HPM_P1;HPM_P2
2021/04/29 00:01:31;;;;;;;;;;;18.00;42.00;;;;;;487323;244;1108;-44
2021/04/29 00:03:34;;;;;;;;;;;18.00;42.00;;;;;;487563;243;1097;-44
2021/04/29 00:05:34;;;;;;;;;;;18.00;42.00;;;;;;487290;244;1391;-44
2021/04/29 00:07:35;;;;;;;;;;;18.00;42.00;;;;;;487322;244;1140;-44
2021/04/29 00:09:37;;;;;;;;;;;18.00;42.00;;;;;;487451;244;1105;-44
2021/04/29 00:11:38;;;;;;;;;;;18.00;42.00;;;;;;487274;244;1558;-44
2021/04/29 00:13:40;;;;;;;;;;;18.00;42.00;;;;;;487443;244;1291;-44
2021/04/29 00:15:41;;;;;;;;;;;18.00;42.00;;;;;;487627;244;1190;-44
2021/04/29 00:17:42;;;;;;;;;;;18.00;42.00;;;;;;487123;244;1183;-44
2021/04/29 00:19:43;;;;;;;;;;;17.90;42.00;;;;;;487406;243;2190;-44
2021/04/29 00:21:45;;;;;;;;;;;17.90;42.00;;;;;;487165;244;1250;-44
2021/04/29 00:23:46;;;;;;;;;;;17.90;42.00;;;;;;487285;244;1356;-44
2021/04/29 00:25:47;;;;;;;;;;;17.90;42.00;;;;;;487778;243;1167;-44
2021/04/29 00:27:48;;;;;;;;;;;17.90;42.00;;;;;;487647;244;1258;-44
2021/04/29 00:29:50;;;;;;;;;;;17.90;42.00;;;;;;487811;244;1221;-44
2021/04/29 00:31:51;;;;;;;;;;;17.90;42.10;;;;;;487426;244;1199;-44
2021/04/29 00:33:52;;;;;;;;;;;17.90;42.10;;;;;;487738;243;1097;-44
2021/04/29 00:35:54;;;;;;;;;;;17.90;42.10;;;;;;487237;244;1201;-44
2021/04/29 00:37:55;;;;;;;;;;;17.90;42.10;;;;;;487684;244;1073;-44
2021/04/29 00:39:56;;;;;;;;;;;17.90;42.10;;;;;;487764;244;2138;-44
2021/04/29 00:41:57;;;;;;;;;;;17.90;42.10;;;;;;487328;243;1245;-44
2021/04/29 00:43:59;;;;;;;;;;;17.90;42.10;;;;;;487403;244;1205;-44
2021/04/29 00:46:00;;;;;;;;;;;17.90;42.00;;;;;;487606;243;1230;-44
2021/04/29 00:48:01;;;;;;;;;;;17.90;42.00;;;;;;487234;243;1252;-44
2021/04/29 00:50:02;;;;;;;;;;;17.90;42.10;;;;;;487287;244;1203;-44
2021/04/29 00:52:04;;;;;;;;;;;17.90;42.10;;;;;;487511;243;1196;-44
2021/04/29 00:54:05;;;;;;;;;;;17.90;42.10;;;;;;487363;243;1099;-44
2021/04/29 00:56:06;;;;;;;;;;;17.90;42.00;;;;;;487277;244;1356;-44
2021/04/29 00:58:08;;;;;;;;;;;18.00;41.90;;;;;;487332;244;1141;-44
2021/04/29 01:00:09;;;;;;;;;;;18.30;41.10;;;;;;487419;244;2194;-44
2021/04/29 01:02:10;;;;;;;;;;;18.70;40.40;;;;;;487486;241;1322;-44
2021/04/29 01:04:12;;;;;;;;;;;18.90;39.80;;;;;;487354;244;1183;-44
2021/04/29 01:06:13;;;;;;;;;;;19.10;39.50;;;;;;487638;243;1307;-44
2021/04/29 01:08:14;;;;;;;;;;;19.30;39.20;;;;;;487414;244;1278;-44
2021/04/29 01:10:17;;;;;;;;;;;19.40;38.90;;;;;;487245;244;1068;-44
2021/04/29 01:12:17;;;;;;;;;;;19.40;38.70;;;;;;487154;244;2097;-44
2021/04/29 01:14:18;;;;;;;;;;;19.50;38.50;;;;;;487528;244;1141;-45
2021/04/29 01:16:19;;;;;;;;;;;19.60;38.40;;;;;;487436;243;1129;-44
2021/04/29 01:18:21;;;;;;;;;;;19.60;38.30;;;;;;487605;244;1060;-45
2021/04/29 01:20:22;;;;;;;;;;;19.70;38.20;;;;;;487782;243;2182;-44
2021/04/29 01:22:23;;;;;;;;;;;19.80;38.20;;;;;;487477;244;1311;-44
2021/04/29 01:24:25;;;;;;;;;;;19.80;38.00;;;;;;487792;244;1079;-45
2021/04/29 01:26:26;;;;;;;;;;;19.80;38.00;;;;;;487732;244;1066;-44
2021/04/29 01:28:27;;;;;;;;;;;19.90;37.90;;;;;;487362;244;1067;-44
2021/04/29 01:30:29;;;;;;;;;;;19.90;37.80;;;;;;487428;244;1182;-44
2021/04/29 01:32:30;;;;;;;;;;;20.00;37.80;;;;;;487435;244;1050;-44
2021/04/29 01:34:31;;;;;;;;;;;20.00;37.70;;;;;;487576;244;1090;-45
2021/04/29 01:36:32;;;;;;;;;;;20.10;37.70;;;;;;487426;244;1246;-44
2021/04/29 01:38:34;;;;;;;;;;;20.10;37.60;;;;;;487494;244;1050;-44
2021/04/29 01:40:35;;;;;;;;;;;20.10;37.60;;;;;;487262;244;2135;-44
2021/04/29 01:42:36;;;;;;;;;;;20.20;37.50;;;;;;487425;244;1196;-44
2021/04/29 01:44:38;;;;;;;;;;;20.20;37.50;;;;;;487373;236;1312;-44
2021/04/29 01:46:39;;;;;;;;;;;20.20;37.50;;;;;;487406;244;1215;-44
2021/04/29 01:48:40;;;;;;;;;;;20.20;37.40;;;;;;487406;243;1057;-45
2021/04/29 01:50:41;;;;;;;;;;;20.20;37.40;;;;;;487707;244;1185;-45
2021/04/29 01:52:42;;;;;;;;;;;20.20;37.30;;;;;;487388;244;1184;-44
2021/04/29 01:54:44;;;;;;;;;;;20.30;37.30;;;;;;487522;244;1025;-44
2021/04/29 01:56:45;;;;;;;;;;;20.30;37.30;;;;;;487382;244;1142;-44
2021/04/29 01:58:46;;;;;;;;;;;20.30;37.30;;;;;;487463;244;1114;-45
2021/04/29 02:00:48;;;;;;;;;;;20.30;37.30;;;;;;487312;243;2207;-44
2021/04/29 02:02:50;;;;;;;;;;;20.40;37.30;;;;;;487559;244;1221;-45
2021/04/29 02:04:50;;;;;;;;;;;20.40;37.20;;;;;;487227;244;1613;-44
2021/04/29 02:06:52;;;;;;;;;;;20.40;37.20;;;;;;487222;244;1200;-45
2021/04/29 02:08:53;;;;;;;;;;;20.40;37.20;;;;;;487402;244;1107;-44
2021/04/29 02:10:54;;;;;;;;;;;20.40;37.20;;;;;;487232;244;1246;-45
2021/04/29 02:12:55;;;;;;;;;;;20.40;37.20;;;;;;487356;244;1310;-44
2021/04/29 02:14:57;;;;;;;;;;;20.50;37.20;;;;;;487415;243;1173;-44
2021/04/29 02:16:58;;;;;;;;;;;20.50;37.10;;;;;;487354;244;1303;-44
2021/04/29 02:18:59;;;;;;;;;;;20.50;37.10;;;;;;487821;244;1053;-44
2021/04/29 02:21:01;;;;;;;;;;;20.50;37.10;;;;;;487578;244;2135;-44
2021/04/29 02:23:02;;;;;;;;;;;20.50;37.00;;;;;;487490;244;1152;-44
2021/04/29 02:25:03;;;;;;;;;;;20.50;37.10;;;;;;487399;244;1073;-44
2021/04/29 02:27:04;;;;;;;;;;;20.60;37.10;;;;;;487272;244;1194;-44
2021/04/29 02:29:06;;;;;;;;;;;20.60;37.00;;;;;;487389;243;1053;-44
2021/04/29 02:31:07;;;;;;;;;;;20.60;37.00;;;;;;487293;243;1332;-44
2021/04/29 02:33:08;;;;;;;;;;;20.60;37.00;;;;;;487446;243;1173;-44
2021/04/29 02:35:09;;;;;;;;;;;20.60;37.00;;;;;;487416;244;1072;-45
2021/04/29 02:37:11;;;;;;;;;;;20.60;36.90;;;;;;487210;244;1212;-44
2021/04/29 02:39:12;;;;;;;;;;;20.60;36.90;;;;;;487785;244;1089;-45
2021/04/29 02:41:13;;;;;;;;;;;20.60;36.90;;;;;;487189;244;2194;-44
2021/04/29 02:43:17;;;;;;;;;;;20.60;36.90;;;;;;487747;244;1175;-44
2021/04/29 02:45:16;;;;;;;;;;;20.60;36.90;;;;;;487282;244;1383;-44
2021/04/29 02:47:17;;;;;;;;;;;20.70;37.00;;;;;;487370;243;1182;-45
2021/04/29 02:49:18;;;;;;;;;;;20.70;36.90;;;;;;487388;244;1053;-44
2021/04/29 02:51:20;;;;;;;;;;;20.70;36.90;;;;;;487518;242;1250;-45
2021/04/29 02:53:21;;;;;;;;;;;20.70;36.80;;;;;;487198;244;1082;-44
2021/04/29 02:55:22;;;;;;;;;;;20.70;36.80;;;;;;487342;244;1055;-45
2021/04/29 02:57:23;;;;;;;;;;;20.80;36.80;;;;;;487186;243;1621;-45
2021/04/29 02:59:25;;;;;;;;;;;20.80;36.90;;;;;;487477;244;1088;-45
2021/04/29 03:01:26;;;;;;;;;;;20.80;36.90;;;;;;487264;244;2171;-45
2021/04/29 03:03:27;;;;;;;;;;;20.80;36.80;;;;;;487563;244;1086;-45
2021/04/29 03:05:29;;;;;;;;;;;20.80;36.80;;;;;;487422;244;1530;-44
2021/04/29 03:07:30;;;;;;;;;;;20.90;36.80;;;;;;487323;243;1251;-44
2021/04/29 03:09:31;;;;;;;;;;;20.80;36.80;;;;;;487403;243;1048;-45
2021/04/29 03:11:32;;;;;;;;;;;20.90;36.80;;;;;;487679;243;1235;-45
2021/04/29 03:13:34;;;;;;;;;;;20.80;36.80;;;;;;487365;244;1295;-45
2021/04/29 03:15:35;;;;;;;;;;;20.90;36.80;;;;;;487581;243;1277;-45
2021/04/29 03:17:36;;;;;;;;;;;20.90;36.70;;;;;;487621;244;1152;-45
2021/04/29 03:19:37;;;;;;;;;;;20.90;36.80;;;;;;487700;243;1060;-44
2021/04/29 03:21:39;;;;;;;;;;;20.90;36.80;;;;;;487565;243;2182;-44
2021/04/29 03:23:40;;;;;;;;;;;20.90;36.70;;;;;;487434;244;1083;-44
2021/04/29 03:25:41;;;;;;;;;;;20.90;36.70;;;;;;487598;244;1034;-45
2021/04/29 03:27:43;;;;;;;;;;;20.90;36.60;;;;;;487231;244;1267;-44
2021/04/29 03:29:44;;;;;;;;;;;21.00;36.60;;;;;;487243;244;1025;-45
2021/04/29 03:31:45;;;;;;;;;;;21.00;36.70;;;;;;487383;244;1302;-45
2021/04/29 03:33:46;;;;;;;;;;;21.00;36.60;;;;;;487536;244;1154;-44
2021/04/29 03:35:48;;;;;;;;;;;21.00;36.60;;;;;;487370;244;1200;-45
2021/04/29 03:37:49;;;;;;;;;;;21.00;36.60;;;;;;487488;243;1043;-44
2021/04/29 03:39:50;;;;;;;;;;;21.00;36.60;;;;;;487811;244;1031;-44
2021/04/29 03:41:52;;;;;;;;;;;21.10;36.70;;;;;;487389;243;2206;-44
2021/04/29 03:43:53;;;;;;;;;;;21.00;36.50;;;;;;487808;243;1058;-45
2021/04/29 03:45:54;;;;;;;;;;;21.00;36.50;;;;;;487614;244;1233;-44
2021/04/29 03:47:55;;;;;;;;;;;21.10;36.60;;;;;;487263;243;1482;-44
2021/04/29 03:49:57;;;;;;;;;;;21.10;36.50;;;;;;487276;244;1088;-44
2021/04/29 03:51:58;;;;;;;;;;;21.10;36.50;;;;;;487120;244;1357;-45
2021/04/29 03:53:59;;;;;;;;;;;21.10;36.50;;;;;;487609;244;1040;-44
2021/04/29 03:56:00;;;;;;;;;;;21.10;36.50;;;;;;487316;244;1709;-44
2021/04/29 03:58:02;;;;;;;;;;;21.10;36.50;;;;;;487581;243;1463;-45
2021/04/29 04:00:03;;;;;;;;;;;21.10;36.50;;;;;;487831;244;1053;-45
2021/04/29 04:02:04;;;;;;;;;;;21.10;36.50;;;;;;487296;244;2124;-45
2021/04/29 04:04:06;;;;;;;;;;;21.10;36.50;;;;;;487290;244;1102;-45
2021/04/29 04:06:08;;;;;;;;;;;21.10;36.50;;;;;;487475;244;1722;-44
2021/04/29 04:08:08;;;;;;;;;;;21.10;36.50;;;;;;487320;244;2347;-44
2021/04/29 04:10:09;;;;;;;;;;;21.10;36.50;;;;;;487759;244;1202;-45
2021/04/29 04:12:11;;;;;;;;;;;21.10;36.50;;;;;;487320;240;1152;-44
2021/04/29 04:14:12;;;;;;;;;;;21.10;36.50;;;;;;487459;244;1348;-45
2021/04/29 04:16:14;;;;;;;;;;;21.20;36.60;;;;;;487220;244;1143;-44
2021/04/29 04:18:15;;;;;;;;;;;21.00;36.60;;;;;;487331;244;1596;-45
2021/04/29 04:20:16;;;;;;;;;;;20.50;37.40;;;;;;487379;244;1066;-44
2021/04/29 04:22:17;;;;;;;;;;;20.00;38.50;;;;;;487364;243;2190;-44
2021/04/29 04:24:18;;;;;;;;;;;19.60;39.30;;;;;;487282;243;1128;-44
2021/04/29 04:26:20;;;;;;;;;;;19.40;40.00;;;;;;487433;243;1141;-44
2021/04/29 04:28:21;;;;;;;;;;;19.20;40.30;;;;;;487169;244;1025;-44
2021/04/29 04:30:22;;;;;;;;;;;19.10;40.60;;;;;;487485;244;1034;-44
2021/04/29 04:32:23;;;;;;;;;;;19.00;40.80;;;;;;487377;243;1187;-44
2021/04/29 04:34:25;;;;;;;;;;;18.90;41.10;;;;;;487460;243;1071;-44
2021/04/29 04:36:26;;;;;;;;;;;18.80;41.30;;;;;;487421;243;1130;-44
2021/04/29 04:38:27;;;;;;;;;;;18.70;41.30;;;;;;487261;244;1181;-44
2021/04/29 04:40:29;;;;;;;;;;;18.60;41.50;;;;;;487315;244;2162;-44
2021/04/29 04:42:30;;;;;;;;;;;18.60;41.80;;;;;;487115;244;1058;-44
2021/04/29 04:44:31;;;;;;;;;;;18.60;41.80;;;;;;487241;244;1073;-44
2021/04/29 04:46:32;;;;;;;;;;;18.50;41.80;;;;;;487089;244;1379;-44
2021/04/29 04:48:34;;;;;;;;;;;18.50;41.80;;;;;;487057;244;1067;-44
2021/04/29 04:50:35;;;;;;;;;;;18.40;41.90;;;;;;487197;244;1100;-44
2021/04/29 04:52:36;;;;;;;;;;;18.40;42.00;;;;;;487155;244;1145;-44
2021/04/29 04:54:38;;;;;;;;;;;18.40;42.00;;;;;;487235;244;1104;-44
2021/04/29 04:56:39;;;;;;;;;;;18.40;42.10;;;;;;487089;244;1234;-44
2021/04/29 04:58:40;;;;;;;;;;;18.30;42.10;;;;;;487415;244;1057;-44
2021/04/29 05:00:41;;;;;;;;;;;18.30;42.30;;;;;;487057;244;2377;-44
2021/04/29 05:02:43;;;;;;;;;;;18.20;42.30;;;;;;487143;243;1158;-44
2021/04/29 05:04:44;;;;;;;;;;;18.30;42.30;;;;;;487124;244;1081;-44
2021/04/29 05:06:45;;;;;;;;;;;18.20;42.40;;;;;;487183;243;1316;-44
2021/04/29 05:08:47;;;;;;;;;;;18.20;42.50;;;;;;487006;244;1114;-44
2021/04/29 05:10:48;;;;;;;;;;;18.20;42.50;;;;;;487032;244;1297;-44
2021/04/29 05:12:49;;;;;;;;;;;18.20;42.50;;;;;;486890;244;1089;-44
2021/04/29 05:14:50;;;;;;;;;;;18.10;42.50;;;;;;487082;244;1107;-44
2021/04/29 05:16:52;;;;;;;;;;;18.10;42.50;;;;;;487158;236;1308;-44
2021/04/29 05:18:53;;;;;;;;;;;18.10;42.40;;;;;;487321;243;1069;-44
2021/04/29 05:20:54;;;;;;;;;;;18.10;42.50;;;;;;487195;244;2203;-44
2021/04/29 05:22:55;;;;;;;;;;;18.10;42.50;;;;;;487205;243;1039;-44
2021/04/29 05:24:57;;;;;;;;;;;18.10;42.50;;;;;;487140;244;1065;-44
2021/04/29 05:26:58;;;;;;;;;;;18.10;42.60;;;;;;487050;244;1075;-44
2021/04/29 05:28:59;;;;;;;;;;;18.00;42.60;;;;;;487371;244;1116;-44
2021/04/29 05:31:01;;;;;;;;;;;18.00;42.60;;;;;;487156;243;1067;-44
2021/04/29 05:33:02;;;;;;;;;;;18.00;42.70;;;;;;487160;244;1102;-44
2021/04/29 05:35:03;;;;;;;;;;;18.00;42.80;;;;;;487043;244;1094;-44
2021/04/29 05:37:04;;;;;;;;;;;18.00;42.70;;;;;;487157;244;1095;-44
2021/04/29 05:39:06;;;;;;;;;;;17.90;42.80;;;;;;486997;244;1118;-44
2021/04/29 05:41:07;;;;;;;;;;;17.90;42.80;;;;;;487109;244;2143;-44
2021/04/29 05:43:08;;;;;;;;;;;17.90;42.80;;;;;;487004;244;1075;-44
2021/04/29 05:45:09;;;;;;;;;;;17.90;42.80;;;;;;487177;244;1066;-44
2021/04/29 05:47:11;;;;;;;;;;;17.90;42.80;;;;;;486947;244;1614;-44
2021/04/29 05:49:12;;;;;;;;;;;17.90;42.70;;;;;;487016;244;1078;-44
2021/04/29 05:51:13;;;;;;;;;;;17.90;42.70;;;;;;487064;244;1137;-44
2021/04/29 05:53:15;;;;;;;;;;;17.90;42.80;;;;;;487098;244;1134;-44
2021/04/29 05:55:16;;;;;;;;;;;17.90;42.80;;;;;;487034;244;1047;-44
2021/04/29 05:57:17;;;;;;;;;;;17.90;42.80;;;;;;486880;241;1163;-44
2021/04/29 05:59:18;;;;;;;;;;;17.90;42.80;;;;;;487102;244;1063;-44
2021/04/29 06:01:20;;;;;;;;;;;17.90;42.80;;;;;;486855;244;2194;-44
2021/04/29 06:03:22;;;;;;;;;;;17.80;42.80;;;;;;486892;243;1196;-44
2021/04/29 06:05:23;;;;;;;;;;;17.80;43.00;;;;;;486830;244;1337;-44
2021/04/29 06:07:24;;;;;;;;;;;17.80;43.10;;;;;;486857;244;1260;-44
2021/04/29 06:09:25;;;;;;;;;;;17.80;43.00;;;;;;486972;243;1121;-44
2021/04/29 06:11:27;;;;;;;;;;;17.80;43.10;;;;;;486926;243;1338;-44
2021/04/29 06:13:28;;;;;;;;;;;17.80;43.00;;;;;;486949;243;1110;-44
2021/04/29 06:15:29;;;;;;;;;;;17.80;43.10;;;;;;486958;244;1092;-44
2021/04/29 06:17:31;;;;;;;;;;;17.80;43.00;;;;;;486883;244;1111;-44
2021/04/29 06:19:32;;;;;;;;;;;17.80;42.90;;;;;;486766;243;1177;-44
2021/04/29 06:21:33;;;;;;;;;;;17.80;43.10;;;;;;486732;244;2234;-46
2021/04/29 06:23:34;;;;;;;;;;;17.80;43.10;;;;;;486794;244;1085;-44
2021/04/29 06:25:36;;;;;;;;;;;17.80;43.10;;;;;;486672;243;1081;-44
2021/04/29 06:27:37;;;;;;;;;;;17.70;43.00;;;;;;486813;244;1174;-44
2021/04/29 06:29:38;;;;;;;;;;;17.70;43.00;;;;;;486619;244;1120;-44
2021/04/29 06:31:41;;;;;;;;;;;17.80;43.00;;;;;;486635;243;1236;-44
2021/04/29 06:33:41;;;;;;;;;;;17.80;42.90;;;;;;486645;244;2186;-44
2021/04/29 06:35:42;;;;;;;;;;;17.80;43.10;;;;;;486667;244;1123;-44
2021/04/29 06:37:43;;;;;;;;;;;17.70;43.00;;;;;;486661;244;1113;-44
2021/04/29 06:39:46;;;;;;;;;;;17.70;43.10;;;;;;486897;244;1153;-44
2021/04/29 06:41:46;;;;;;;;;;;17.70;43.20;;;;;;486611;244;2206;-44
2021/04/29 06:43:47;;;;;;;;;;;17.70;43.20;;;;;;486669;244;1147;-44
2021/04/29 06:45:49;;;;;;;;;;;17.70;43.20;;;;;;486667;244;1127;-44
2021/04/29 06:47:50;;;;;;;;;;;17.70;43.20;;;;;;486561;243;1341;-44
2021/04/29 06:49:51;;;;;;;;;;;17.70;43.10;;;;;;486552;243;1264;-44
2021/04/29 06:51:52;;;;;;;;;;;17.70;43.20;;;;;;486547;244;1166;-44
2021/04/29 06:53:54;;;;;;;;;;;17.60;43.20;;;;;;486511;244;1321;-46
2021/04/29 06:55:55;;;;;;;;;;;17.70;43.30;;;;;;486474;244;1075;-46
2021/04/29 06:57:56;;;;;;;;;;;17.60;43.30;;;;;;486517;244;1101;-46
2021/04/29 06:59:58;;;;;;;;;;;17.60;43.40;;;;;;486474;244;1099;-46
2021/04/29 07:01:59;;;;;;;;;;;17.60;43.40;;;;;;486530;244;2203;-46
2021/04/29 07:04:00;;;;;;;;;;;17.60;43.40;;;;;;486738;244;1143;-46
2021/04/29 07:06:01;;;;;;;;;;;17.60;43.50;;;;;;486623;242;1342;-44
2021/04/29 07:08:03;;;;;;;;;;;17.60;43.50;;;;;;486980;243;1120;-46
2021/04/29 07:10:04;;;;;;;;;;;17.60;43.30;;;;;;486779;244;1106;-46
2021/04/29 07:12:05;;;;;;;;;;;17.60;43.40;;;;;;486718;244;1288;-46
2021/04/29 07:14:06;;;;;;;;;;;17.60;43.40;;;;;;486711;244;1094;-44
2021/04/29 07:16:08;;;;;;;;;;;17.60;43.50;;;;;;486613;244;1297;-44
2021/04/29 07:18:10;;;;;;;;;;;17.60;43.40;;;;;;486954;244;1164;-44
2021/04/29 07:20:11;;;;;;;;;;;17.60;43.40;;;;;;486524;244;2131;-44
2021/04/29 07:22:12;;;;;;;;;;;17.60;43.50;;;;;;486439;243;2243;-44
2021/04/29 07:24:14;;;;;;;;;;;17.60;43.40;;;;;;486561;244;1124;-44
2021/04/29 07:26:15;;;;;;;;;;;17.60;43.40;;;;;;486478;244;1131;-44
2021/04/29 07:28:17;;;;;;;;;;;17.60;43.40;;;;;;486503;244;1061;-44
2021/04/29 07:30:17;;;;;;;;;;;17.50;43.50;;;;;;486334;244;2200;-44
2021/04/29 07:32:19;;;;;;;;;;;17.50;43.50;;;;;;486455;243;1212;-44
2021/04/29 07:34:20;;;;;;;;;;;17.60;43.40;;;;;;486604;236;1326;-44
2021/04/29 07:36:21;;;;;;;;;;;17.90;42.70;;;;;;486543;244;1188;-44
2021/04/29 07:38:22;;;;;;;;;;;18.40;41.70;;;;;;486516;244;1073;-44
2021/04/29 07:40:24;;;;;;;;;;;18.70;41.00;;;;;;486478;244;1149;-44
2021/04/29 07:42:25;;;;;;;;;;;18.90;40.50;;;;;;486366;244;2135;-44
2021/04/29 07:44:26;;;;;;;;;;;19.10;40.20;;;;;;486468;244;1358;-44
2021/04/29 07:46:28;;;;;;;;;;;19.20;39.90;;;;;;486560;244;1380;-44
2021/04/29 07:48:29;;;;;;;;;;;19.30;39.60;;;;;;486622;244;1071;-45
2021/04/29 07:50:31;;;;;;;;;;;19.40;39.50;;;;;;486482;244;1225;-44
2021/04/29 07:52:34;;;;;;;;;;;19.50;39.30;;;;;;486560;244;1320;-44
2021/04/29 07:54:35;;;;;;;;;;;19.50;39.20;;;;;;486452;243;1406;-44
2021/04/29 07:56:34;;;;;;;;;;;19.60;39.10;;;;;;486495;243;2326;-44
2021/04/29 07:58:36;;;;;;;;;;;19.60;39.00;;;;;;486528;244;1326;-44
2021/04/29 08:00:37;;;;;;;;;;;19.70;38.90;;;;;;486528;244;1088;-44
2021/04/29 08:02:38;;;;;;;;;;;19.70;38.80;;;;;;486517;244;2191;-44
2021/04/29 08:04:40;;;;;;;;;;;19.80;38.80;;;;;;486505;244;1165;-44
2021/04/29 08:06:42;;;;;;;;;;;19.80;38.70;;;;;;486587;244;1593;-45
2021/04/29 08:08:42;;;;;;;;;;;19.80;38.60;;;;;;486506;244;2019;-45
2021/04/29 08:10:43;;;;;;;;;;;19.90;38.60;;;;;;486468;244;1237;-44
2021/04/29 08:12:45;;;;;;;;;;;19.90;38.50;;;;;;486099;244;1297;-44
2021/04/29 08:14:46;;;;;;;;;;;20.00;38.50;;;;;;486386;244;1207;-44
2021/04/29 08:16:48;;;;;;;;;;;20.00;38.40;;;;;;486493;244;1399;-44
2021/04/29 08:18:49;;;;;;;;;;;20.00;38.30;;;;;;486482;244;1863;-45
2021/04/29 08:20:50;;;;;;;;;;;20.10;38.30;;;;;;486418;244;1940;-45
2021/04/29 08:22:51;;;;;;;;;;;20.10;38.30;;;;;;486513;244;2194;-45
2021/04/29 08:24:52;;;;;;;;;;;20.10;38.20;;;;;;486542;244;1373;-44
2021/04/29 08:26:54;;;;;;;;;;;20.20;38.20;;;;;;486432;244;1290;-44
2021/04/29 08:28:55;;;;;;;;;;;20.20;38.10;;;;;;486679;244;1083;-45
2021/04/29 08:30:57;;;;;;;;;;;20.20;38.10;;;;;;486566;244;1184;-44
2021/04/29 08:32:58;;;;;;;;;;;20.20;38.00;;;;;;486594;244;1173;-44
2021/04/29 08:34:59;;;;;;;;;;;20.20;38.00;;;;;;486578;243;1180;-44
2021/04/29 08:37:00;;;;;;;;;;;20.30;38.00;;;;;;486481;241;1332;-44
2021/04/29 08:39:04;;;;;;;;;;;20.30;38.00;;;;;;486506;244;1213;-45
2021/04/29 08:41:04;;;;;;;;;;;20.40;38.00;;;;;;486431;244;2095;-44
2021/04/29 08:43:05;;;;;;;;;;;20.40;38.00;;;;;;486540;244;2179;-45
2021/04/29 08:45:06;;;;;;;;;;;20.40;37.90;;;;;;486325;244;1194;-45
2021/04/29 08:47:07;;;;;;;;;;;20.40;37.90;;;;;;486201;244;1381;-45
2021/04/29 08:49:09;;;;;;;;;;;20.40;37.90;;;;;;486493;244;1246;-45
2021/04/29 08:51:10;;;;;;;;;;;20.40;37.90;;;;;;486483;243;1435;-44
2021/04/29 08:53:11;;;;;;;;;;;20.40;37.90;;;;;;486869;244;1145;-44
2021/04/29 08:55:13;;;;;;;;;;;20.40;37.80;;;;;;486638;244;1094;-45
2021/04/29 08:57:14;;;;;;;;;;;20.50;37.80;;;;;;486600;244;1208;-44
2021/04/29 08:59:15;;;;;;;;;;;20.50;37.90;;;;;;486511;244;1139;-44
2021/04/29 09:01:16;;;;;;;;;;;20.50;37.80;;;;;;486589;244;1420;-45
2021/04/29 09:03:18;;;;;;;;;;;20.50;37.70;;;;;;486839;244;2179;-45
2021/04/29 09:05:19;;;;;;;;;;;20.50;37.70;;;;;;486455;236;1324;-45
2021/04/29 09:07:21;;;;;;;;;;;20.60;37.80;;;;;;486549;243;1220;-44
2021/04/29 09:09:21;;;;;;;;;;;20.60;37.70;;;;;;486406;244;1572;-45
2021/04/29 09:11:23;;;;;;;;;;;20.60;37.60;;;;;;486607;243;1238;-45
2021/04/29 09:13:25;;;;;;;;;;;20.60;37.70;;;;;;486982;244;1338;-44
2021/04/29 09:15:26;;;;;;;;;;;20.60;37.60;;;;;;486555;244;1489;-45
2021/04/29 09:17:27;;;;;;;;;;;20.60;37.70;;;;;;486483;244;1094;-45
2021/04/29 09:19:29;;;;;;;;;;;20.60;37.60;;;;;;486519;244;1125;-45
2021/04/29 09:21:30;;;;;;;;;;;20.70;37.60;;;;;;486477;244;1204;-45
2021/04/29 09:23:31;;;;;;;;;;;20.70;37.50;;;;;;486619;244;2177;-45
2021/04/29 09:25:33;;;;;;;;;;;20.80;37.50;;;;;;486590;244;1081;-44
2021/04/29 09:27:34;;;;;;;;;;;20.80;37.50;;;;;;486524;242;1346;-44
2021/04/29 09:29:35;;;;;;;;;;;20.70;37.50;;;;;;486468;243;1242;-45
2021/04/29 09:31:36;;;;;;;;;;;20.80;37.50;;;;;;486375;244;1074;-44
2021/04/29 09:33:38;;;;;;;;;;;20.80;37.50;;;;;;486441;243;1130;-45
2021/04/29 09:35:39;;;;;;;;;;;20.80;37.40;;;;;;486523;244;1230;-45
2021/04/29 09:37:41;;;;;;;;;;;20.80;37.40;;;;;;486412;244;1192;-44
2021/04/29 09:39:42;;;;;;;;;;;20.80;37.40;;;;;;486596;243;1103;-45
2021/04/29 09:41:45;;;;;;;;;;;20.90;37.40;;;;;;486432;243;1120;-45
2021/04/29 09:43:46;;;;;;;;;;;20.90;37.40;;;;;;486522;243;2202;-44
2021/04/29 09:45:47;;;;;;;;;;;20.80;37.40;;;;;;486550;244;1213;-44
2021/04/29 09:47:48;;;;;;;;;;;20.90;37.40;;;;;;486550;244;1522;-44
2021/04/29 09:49:50;;;;;;;;;;;20.90;37.40;;;;;;486558;244;1141;-45
2021/04/29 09:51:51;;;;;;;;;;;20.80;37.40;;;;;;486577;244;1276;-45
2021/04/29 09:53:54;;;;;;;;;;;20.90;37.30;;;;;;486618;244;1145;-44
2021/04/29 09:55:53;;;;;;;;;;;20.60;37.90;;;;;;486471;244;1501;-44
2021/04/29 09:57:55;;;;;;;;;;;20.00;38.90;;;;;;486642;244;1228;-44
2021/04/29 09:59:58;;;;;;;;;;;19.50;39.90;;;;;;486512;244;1151;-44
2021/04/29 10:01:57;;;;;;;;;;;19.30;40.60;;;;;;486460;244;1415;-44
2021/04/29 10:03:59;;;;;;;;;;;19.10;41.00;;;;;;486537;243;2198;-44
2021/04/29 10:06:00;;;;;;;;;;;18.90;41.30;;;;;;486429;244;1311;-44
2021/04/29 10:08:01;;;;;;;;;;;18.90;41.60;;;;;;486560;243;1279;-44
2021/04/29 10:10:03;;;;;;;;;;;18.70;41.80;;;;;;486592;244;1211;-44
2021/04/29 10:12:04;;;;;;;;;;;18.60;41.90;;;;;;486541;244;1241;-44
2021/04/29 10:14:06;;;;;;;;;;;18.50;42.10;;;;;;486482;244;1188;-44
2021/04/29 10:16:07;;;;;;;;;;;18.50;42.20;;;;;;486321;243;1370;-44
2021/04/29 10:18:08;;;;;;;;;;;18.50;42.20;;;;;;486526;244;1087;-44
2021/04/29 10:20:09;;;;;;;;;;;18.40;42.40;;;;;;486700;244;1163;-45
2021/04/29 10:22:11;;;;;;;;;;;18.40;42.60;;;;;;486653;243;1315;-44
2021/04/29 10:24:12;;;;;;;;;;;18.30;42.60;;;;;;486580;244;2182;-44
2021/04/29 10:26:13;;;;;;;;;;;18.30;42.70;;;;;;486300;244;1207;-44
2021/04/29 10:28:14;;;;;;;;;;;18.20;42.80;;;;;;486400;243;1177;-44
2021/04/29 10:30:18;;;;;;;;;;;18.20;42.90;;;;;;486431;243;1125;-44
2021/04/29 10:32:17;;;;;;;;;;;18.20;42.90;;;;;;486289;244;2182;-44
2021/04/29 10:34:18;;;;;;;;;;;18.20;42.90;;;;;;486806;244;1150;-44
2021/04/29 10:36:20;;;;;;;;;;;18.20;42.90;;;;;;486626;242;1404;-44
2021/04/29 10:38:21;;;;;;;;;;;18.10;43.00;;;;;;486733;244;1081;-44
2021/04/29 10:40:22;;;;;;;;;;;18.10;43.10;;;;;;486617;243;1232;-44
2021/04/29 10:42:24;;;;;;;;;;;18.10;43.10;;;;;;486493;244;1095;-44
2021/04/29 10:44:25;;;;;;;;;;;18.10;43.10;;;;;;486548;244;2178;-44
2021/04/29 10:46:26;;;;;;;;;;;18.00;43.10;;;;;;486632;244;1177;-44
2021/04/29 10:48:28;;;;;;;;;;;18.00;43.20;;;;;;486673;244;1177;-44
2021/04/29 10:50:29;;;;;;;;;;;18.00;43.20;;;;;;486736;244;1175;-44
2021/04/29 10:52:31;;;;;;;;;;;18.00;43.30;;;;;;486672;244;1248;-44
2021/04/29 10:54:32;;;;;;;;;;;18.00;43.30;;;;;;486664;244;1124;-44
2021/04/29 10:56:33;;;;;;;;;;;18.00;43.20;;;;;;486531;243;1078;-44
2021/04/29 10:58:34;;;;;;;;;;;18.00;43.10;;;;;;486579;244;1109;-44
2021/04/29 11:00:35;;;;;;;;;;;18.00;43.30;;;;;;486624;244;1081;-44
2021/04/29 11:02:37;;;;;;;;;;;17.90;43.30;;;;;;486493;244;2182;-44
2021/04/29 11:04:38;;;;;;;;;;;17.90;43.30;;;;;;486393;244;1303;-44
2021/04/29 11:06:39;;;;;;;;;;;17.90;43.30;;;;;;486264;244;1280;-44
2021/04/29 11:08:40;;;;;;;;;;;17.90;43.40;;;;;;486433;244;1238;-44
2021/04/29 11:10:42;;;;;;;;;;;17.80;43.40;;;;;;486405;244;1332;-44
2021/04/29 11:12:43;;;;;;;;;;;17.90;43.50;;;;;;486573;244;1130;-44
2021/04/29 11:14:44;;;;;;;;;;;17.80;43.50;;;;;;486547;244;1214;-44
2021/04/29 11:16:46;;;;;;;;;;;17.80;43.50;;;;;;486420;244;1380;-44
2021/04/29 11:18:47;;;;;;;;;;;17.80;43.50;;;;;;486381;244;1108;-44
2021/04/29 11:20:48;;;;;;;;;;;17.80;43.50;;;;;;486322;244;1192;-44
2021/04/29 11:22:49;;;;;;;;;;;17.80;43.60;;;;;;486308;244;2184;-44
2021/04/29 11:24:51;;;;;;;;;;;17.80;43.60;;;;;;486424;244;1191;-44
2021/04/29 11:26:52;;;;;;;;;;;17.70;43.60;;;;;;486379;243;1269;-44
2021/04/29 11:28:55;;;;;;;;;;;17.70;43.60;;;;;;486485;241;1056;-44
2021/04/29 11:30:55;;;;;;;;;;;17.70;43.60;;;;;;486257;243;2015;-44
2021/04/29 11:32:56;;;;;;;;;;;17.80;43.60;;;;;;486340;244;1477;-44
2021/04/29 11:34:58;;;;;;;;;;;17.70;43.60;;;;;;486449;244;1154;-44
2021/04/29 11:36:59;;;;;;;;;;;17.70;43.60;;;;;;486576;236;1319;-44
2021/04/29 11:39:01;;;;;;;;;;;17.70;43.60;;;;;;486717;244;1101;-44
2021/04/29 11:41:02;;;;;;;;;;;17.70;43.60;;;;;;486568;244;2256;-44
2021/04/29 11:43:03;;;;;;;;;;;17.70;43.60;;;;;;486640;244;2139;-44
2021/04/29 11:45:04;;;;;;;;;;;17.70;43.60;;;;;;486345;244;1261;-44
2021/04/29 11:47:06;;;;;;;;;;;17.70;43.70;;;;;;486355;244;1290;-44
2021/04/29 11:49:07;;;;;;;;;;;17.70;43.60;;;;;;486399;244;1121;-44
2021/04/29 11:51:08;;;;;;;;;;;17.70;43.60;;;;;;486406;244;1180;-44
2021/04/29 11:53:09;;;;;;;;;;;17.70;43.50;;;;;;486405;243;1400;-44
2021/04/29 11:55:11;;;;;;;;;;;17.70;43.60;;;;;;486496;244;1103;-44
2021/04/29 11:57:12;;;;;;;;;;;17.70;43.60;;;;;;486494;244;1027;-44